Time;durP1;ratioP1;P1;durP2;ratioP2;P2;SDS_P1;SDS_P2;PMS_P1;PMS_P2;Temp;Humidity;BMP_temperature;BMP_pressure;BME280_temperature;BME280_humidity;BME280_pressure;Samples;Min_cycle;Max_cycle;Signal;HPM_P1;HPM_P2
2021/03/10 00:00:33;;;;;;;21.00;10.20;;;6.30;99.90;;;;;;5107736;28;20270;-76
2021/03/10 00:03:01;;;;;;;17.50;10.20;;;6.30;99.90;;;;;;5105673;28;20216;-75
2021/03/10 00:05:27;;;;;;;18.58;10.13;;;6.30;99.90;;;;;;5109176;28;20193;-76
2021/03/10 00:07:54;;;;;;;22.65;10.43;;;6.20;99.90;;;;;;5107243;28;20248;-75
2021/03/10 00:10:20;;;;;;;18.45;10.75;;;6.20;99.90;;;;;;5109012;28;20197;-77
2021/03/10 00:12:47;;;;;;;18.50;10.35;;;6.20;99.90;;;;;;5106979;27;20201;-77
2021/03/10 00:15:14;;;;;;;16.30;9.45;;;6.20;99.90;;;;;;5108694;28;20208;-75
2021/03/10 00:17:43;;;;;;;14.82;9.13;;;6.20;99.90;;;;;;5106959;27;20220;-74
2021/03/10 00:20:12;;;;;;;16.42;9.60;;;6.20;99.90;;;;;;5107076;28;20223;-74
2021/03/10 00:22:39;;;;;;;21.40;9.52;;;6.20;99.90;;;;;;5104375;28;20209;-75
2021/03/10 00:25:07;;;;;;;16.27;9.40;;;6.20;99.90;;;;;;5106874;28;20209;-75
2021/03/10 00:27:34;;;;;;;15.02;9.23;;;6.20;99.90;;;;;;5107069;28;20193;-75
2021/03/10 00:30:01;;;;;;;16.98;9.68;;;6.20;99.90;;;;;;5109049;28;20641;-74
2021/03/10 00:32:28;;;;;;;15.68;8.90;;;6.20;99.90;;;;;;5107082;28;20228;-77
2021/03/10 00:34:56;;;;;;;15.77;9.38;;;6.20;99.90;;;;;;5107953;28;20680;-76
2021/03/10 00:37:24;;;;;;;19.80;9.82;;;6.10;99.90;;;;;;5107510;28;20208;-76
2021/03/10 00:39:51;;;;;;;18.95;11.23;;;6.10;99.90;;;;;;5109380;27;20213;-77
2021/03/10 00:42:18;;;;;;;16.80;10.65;;;6.20;99.90;;;;;;5108344;28;20205;-75
2021/03/10 00:44:45;;;;;;;19.65;10.75;;;6.10;99.90;;;;;;5108979;28;20224;-77
2021/03/10 00:47:12;;;;;;;19.42;11.50;;;6.10;99.90;;;;;;5108320;27;20202;-75
2021/03/10 00:49:39;;;;;;;22.67;11.48;;;6.10;99.90;;;;;;5107869;28;20189;-75
2021/03/10 00:52:06;;;;;;;18.60;11.30;;;6.10;99.90;;;;;;5105454;28;20509;-74
2021/03/10 00:54:33;;;;;;;18.90;11.38;;;6.10;99.90;;;;;;5104687;27;20202;-75
2021/03/10 00:57:00;;;;;;;20.55;11.70;;;6.10;99.90;;;;;;5108009;28;20337;-76
2021/03/10 00:59:26;;;;;;;21.92;11.38;;;6.00;99.90;;;;;;5106251;28;20201;-75
2021/03/10 01:01:53;;;;;;;18.42;11.48;;;6.10;99.90;;;;;;5104001;28;20204;-74
2021/03/10 01:04:19;;;;;;;19.83;11.25;;;6.10;99.90;;;;;;5104042;27;20721;-74
2021/03/10 01:06:46;;;;;;;20.52;11.35;;;6.10;99.90;;;;;;5105571;28;20306;-75
2021/03/10 01:09:12;;;;;;;17.25;11.27;;;6.10;99.90;;;;;;5106969;28;20185;-74
2021/03/10 01:11:40;;;;;;;21.80;11.82;;;6.00;99.90;;;;;;5105030;28;21137;-75
2021/03/10 01:14:07;;;;;;;20.48;11.07;;;6.10;99.90;;;;;;5106985;28;20201;-74
2021/03/10 01:16:34;;;;;;;23.13;11.93;;;6.10;99.90;;;;;;5104057;28;20212;-76
2021/03/10 01:19:01;;;;;;;20.25;11.88;;;6.00;99.90;;;;;;5104855;28;20230;-75
2021/03/10 01:21:27;;;;;;;22.35;11.63;;;6.00;99.90;;;;;;5105024;27;20574;-74
2021/03/10 01:23:54;;;;;;;22.27;11.50;;;6.00;99.90;;;;;;5104148;28;20291;-75
2021/03/10 01:26:20;;;;;;;22.25;11.65;;;6.00;99.90;;;;;;5105491;28;20201;-75
2021/03/10 01:28:47;;;;;;;20.02;11.85;;;6.00;99.90;;;;;;5106749;28;20197;-76
2021/03/10 01:31:14;;;;;;;21.20;12.07;;;6.00;99.90;;;;;;5103742;28;20201;-75
2021/03/10 01:33:40;;;;;;;21.95;11.55;;;6.00;99.90;;;;;;5104359;28;20208;-74
2021/03/10 01:36:07;;;;;;;22.13;11.90;;;6.10;99.90;;;;;;5106061;28;20690;-74
2021/03/10 01:38:33;;;;;;;19.55;12.13;;;6.10;99.90;;;;;;5107272;27;20209;-76
2021/03/10 01:41:00;;;;;;;24.08;12.70;;;6.10;99.90;;;;;;5104609;28;20266;-74
2021/03/10 01:43:26;;;;;;;21.38;12.55;;;6.10;99.90;;;;;;5100715;28;20271;-75
2021/03/10 01:45:54;;;;;;;19.67;12.27;;;6.10;99.90;;;;;;5107504;28;20307;-76
2021/03/10 01:48:21;;;;;;;19.52;12.10;;;6.10;99.90;;;;;;5105204;28;20561;-75
2021/03/10 01:50:48;;;;;;;20.27;11.43;;;6.10;99.90;;;;;;5104947;28;20213;-73
2021/03/10 01:53:15;;;;;;;18.92;11.27;;;6.20;99.90;;;;;;5104379;28;20193;-75
2021/03/10 01:55:41;;;;;;;19.27;11.10;;;6.10;99.90;;;;;;5102934;28;20208;-77
2021/03/10 01:58:08;;;;;;;19.80;12.38;;;6.10;99.90;;;;;;5102756;28;20593;-76
2021/03/10 02:00:34;;;;;;;19.02;11.32;;;6.10;99.90;;;;;;5106520;28;20296;-74
2021/03/10 02:03:03;;;;;;;19.30;11.45;;;6.10;99.90;;;;;;5106182;28;20193;-75
2021/03/10 02:05:29;;;;;;;21.50;11.65;;;6.10;99.90;;;;;;5106223;28;20233;-76
2021/03/10 02:08:05;;;;;;;18.98;11.25;;;6.10;99.90;;;;;;5102992;28;20229;-75
2021/03/10 02:10:46;;;;;;;21.95;11.15;;;6.10;99.90;;;;;;5107533;28;20188;-75
2021/03/10 02:13:17;;;;;;;20.85;11.98;;;6.10;99.90;;;;;;5104998;28;20204;-74
2021/03/10 02:15:53;;;;;;;24.10;12.02;;;6.10;99.90;;;;;;5103032;28;20604;-76
2021/03/10 02:18:26;;;;;;;19.95;11.00;;;6.10;99.90;;;;;;5101314;28;20201;-76
2021/03/10 02:20:57;;;;;;;17.08;11.13;;;6.10;99.90;;;;;;5105198;28;20657;-75
2021/03/10 02:23:51;;;;;;;19.27;11.80;;;6.20;99.90;;;;;;5102867;28;20258;-74
2021/03/10 02:26:49;;;;;;;20.25;11.90;;;6.20;99.90;;;;;;5105107;28;20196;-76
2021/03/10 02:29:17;;;;;;;23.95;12.88;;;6.20;99.90;;;;;;5089498;28;20232;-75
2021/03/10 02:31:48;;;;;;;27.15;13.77;;;6.20;99.90;;;;;;5103195;28;20696;-75
2021/03/10 02:34:16;;;;;;;22.95;12.80;;;6.20;99.90;;;;;;5101730;28;20226;-75
2021/03/10 02:36:44;;;;;;;25.48;13.80;;;6.20;99.90;;;;;;5104507;28;20571;-75
2021/03/10 02:39:11;;;;;;;24.67;14.48;;;6.20;99.90;;;;;;5105774;28;20213;-75
2021/03/10 02:41:38;;;;;;;26.27;14.60;;;6.10;99.90;;;;;;5105852;28;20212;-74
2021/03/10 02:44:06;;;;;;;30.15;15.57;;;6.20;99.90;;;;;;5104897;28;20657;-75
2021/03/10 02:46:34;;;;;;;30.52;16.60;;;6.20;99.90;;;;;;5107954;28;20728;-78
2021/03/10 02:49:01;;;;;;;29.40;16.35;;;6.10;99.90;;;;;;5106915;28;20196;-75
2021/03/10 02:51:29;;;;;;;30.63;17.60;;;6.10;99.90;;;;;;5105490;28;20206;-76
2021/03/10 02:53:57;;;;;;;33.33;18.75;;;6.10;99.90;;;;;;5110023;28;20196;-77
2021/03/10 02:56:23;;;;;;;35.47;18.42;;;6.10;99.90;;;;;;5105932;28;20271;-75
2021/03/10 02:58:49;;;;;;;38.88;19.42;;;6.10;99.90;;;;;;5106660;28;20208;-77
2021/03/10 03:01:16;;;;;;;41.80;20.25;;;6.10;99.90;;;;;;5107266;27;20201;-76
2021/03/10 03:03:43;;;;;;;44.70;21.38;;;6.10;99.90;;;;;;5111685;28;20205;-73
2021/03/10 03:06:10;;;;;;;46.70;21.85;;;6.00;99.90;;;;;;5108293;28;20209;-76
2021/03/10 03:08:37;;;;;;;41.58;20.48;;;6.00;99.90;;;;;;5110038;28;20590;-75
2021/03/10 03:11:04;;;;;;;46.13;22.38;;;6.00;99.90;;;;;;5108849;28;20190;-74
2021/03/10 03:13:31;;;;;;;42.33;22.13;;;6.00;99.90;;;;;;5108828;28;20198;-78
2021/03/10 03:15:59;;;;;;;47.17;23.08;;;6.00;99.90;;;;;;5108974;28;20209;-76
2021/03/10 03:18:27;;;;;;;42.95;22.02;;;6.00;99.90;;;;;;5108685;27;20204;-75
2021/03/10 03:20:55;;;;;;;49.30;23.13;;;6.00;99.90;;;;;;5108396;27;20220;-75
2021/03/10 03:23:24;;;;;;;44.65;23.70;;;6.00;99.90;;;;;;5105982;27;20646;-76
2021/03/10 03:25:51;;;;;;;54.03;24.50;;;5.90;99.90;;;;;;5108919;28;20677;-75
2021/03/10 03:28:20;;;;;;;55.47;25.15;;;6.00;99.90;;;;;;5107402;28;20286;-76
2021/03/10 03:30:48;;;;;;;51.72;25.42;;;6.00;99.90;;;;;;5109344;27;20190;-79
2021/03/10 03:33:17;;;;;;;58.40;26.80;;;6.00;99.90;;;;;;5107619;27;20213;-77
2021/03/10 03:35:45;;;;;;;57.63;26.90;;;6.00;99.90;;;;;;5109318;28;20615;-76
2021/03/10 03:38:13;;;;;;;64.70;28.23;;;6.10;99.90;;;;;;5109534;28;20653;-76
2021/03/10 03:40:39;;;;;;;54.40;28.48;;;6.10;99.90;;;;;;5109134;28;20720;-76
2021/03/10 03:43:08;;;;;;;59.33;28.65;;;6.10;99.90;;;;;;5107653;28;20266;-76
2021/03/10 03:45:35;;;;;;;65.45;30.70;;;6.10;99.90;;;;;;5107852;28;20650;-78
2021/03/10 03:48:02;;;;;;;64.72;31.88;;;6.10;99.90;;;;;;5107098;28;20205;-76
2021/03/10 03:50:29;;;;;;;66.70;32.35;;;6.10;99.90;;;;;;5108018;28;20547;-75
2021/03/10 03:52:56;;;;;;;69.78;32.33;;;6.10;99.90;;;;;;5106418;28;20201;-74
2021/03/10 03:55:23;;;;;;;72.63;33.28;;;6.20;99.90;;;;;;5107214;28;20587;-75
2021/03/10 03:57:50;;;;;;;67.13;33.10;;;6.10;99.90;;;;;;5106297;28;20213;-75
2021/03/10 04:00:19;;;;;;;64.68;32.13;;;6.10;99.90;;;;;;5107030;28;20280;-76
2021/03/10 04:02:46;;;;;;;71.47;33.72;;;6.10;99.90;;;;;;5107041;28;20205;-74
2021/03/10 04:05:14;;;;;;;69.28;33.20;;;6.10;99.90;;;;;;5109199;28;20197;-75
2021/03/10 04:07:48;;;;;;;69.32;32.40;;;6.10;99.90;;;;;;5105833;28;20221;-76
2021/03/10 04:10:14;;;;;;;71.93;33.10;;;6.10;99.90;;;;;;5109330;28;20193;-77
2021/03/10 04:12:41;;;;;;;79.32;34.40;;;6.10;99.90;;;;;;5106299;28;20201;-74
2021/03/10 04:15:09;;;;;;;74.88;33.85;;;6.10;99.90;;;;;;5108565;28;20227;-76
2021/03/10 04:17:36;;;;;;;79.45;36.03;;;6.10;99.90;;;;;;5106691;27;20616;-76
2021/03/10 04:20:07;;;;;;;70.53;34.67;;;6.10;99.90;;;;;;5107260;28;20262;-76
2021/03/10 04:22:33;;;;;;;79.82;36.53;;;6.10;99.90;;;;;;5108377;28;20204;-74
2021/03/10 04:24:59;;;;;;;79.50;36.67;;;6.10;99.90;;;;;;5105116;28;20220;-77
2021/03/10 04:27:26;;;;;;;74.88;35.50;;;6.10;99.90;;;;;;5108174;28;20197;-75
2021/03/10 04:29:53;;;;;;;79.28;36.72;;;6.10;99.90;;;;;;5107191;28;20254;-76
2021/03/10 04:32:19;;;;;;;73.50;36.75;;;6.10;99.90;;;;;;5107176;28;20254;-76
2021/03/10 04:34:46;;;;;;;85.70;38.65;;;6.10;99.90;;;;;;5107948;28;20205;-76
2021/03/10 04:37:12;;;;;;;76.90;39.25;;;6.10;99.90;;;;;;5108383;28;20202;-75
2021/03/10 04:39:38;;;;;;;83.32;41.15;;;6.10;99.90;;;;;;5108839;28;20213;-76
2021/03/10 04:42:06;;;;;;;82.43;40.90;;;6.10;99.90;;;;;;5105629;28;20256;-77
2021/03/10 04:44:32;;;;;;;84.45;40.33;;;6.10;99.90;;;;;;5105534;28;20205;-76
2021/03/10 04:46:59;;;;;;;84.10;40.50;;;6.00;99.90;;;;;;5106387;28;20201;-74
2021/03/10 04:49:26;;;;;;;87.85;40.28;;;6.10;99.90;;;;;;5106197;28;20193;-75
2021/03/10 04:51:52;;;;;;;83.82;41.70;;;6.10;99.90;;;;;;5106493;27;20208;-74
2021/03/10 04:54:18;;;;;;;84.10;42.33;;;6.00;99.90;;;;;;5108614;28;20659;-77
2021/03/10 04:56:45;;;;;;;82.57;41.08;;;6.10;99.90;;;;;;5106518;28;20205;-77
2021/03/10 04:59:11;;;;;;;91.55;42.05;;;6.00;99.90;;;;;;5106746;28;20216;-76
2021/03/10 05:01:37;;;;;;;91.57;43.25;;;6.00;99.90;;;;;;5107351;28;20277;-75
2021/03/10 05:04:05;;;;;;;84.55;41.15;;;6.10;99.90;;;;;;5100824;28;20216;-74
2021/03/10 05:06:31;;;;;;;89.65;42.22;;;6.10;99.90;;;;;;5106382;28;20193;-76
2021/03/10 05:08:58;;;;;;;84.85;42.42;;;6.10;99.90;;;;;;5105286;28;20657;-74
2021/03/10 05:11:24;;;;;;;88.40;42.72;;;6.00;99.90;;;;;;5107395;27;20665;-76
2021/03/10 05:13:50;;;;;;;86.43;43.53;;;6.00;99.90;;;;;;5104196;28;20263;-76
2021/03/10 05:16:17;;;;;;;92.03;43.40;;;6.00;99.90;;;;;;5108974;28;20209;-76
2021/03/10 05:18:44;;;;;;;84.78;43.45;;;6.10;99.90;;;;;;5104079;28;20254;-75
2021/03/10 05:21:11;;;;;;;87.88;44.92;;;6.10;99.90;;;;;;5107420;28;20216;-75
2021/03/10 05:23:41;;;;;;;85.50;44.38;;;6.10;99.90;;;;;;5104622;28;20213;-74
2021/03/10 05:26:07;;;;;;;85.15;43.50;;;6.10;99.90;;;;;;5106940;27;20216;-74
2021/03/10 05:28:34;;;;;;;89.13;44.30;;;6.10;99.90;;;;;;5104456;28;20202;-74
2021/03/10 05:31:00;;;;;;;95.50;42.85;;;6.00;99.90;;;;;;5101797;27;20202;-75
2021/03/10 05:33:26;;;;;;;100.10;44.78;;;6.10;99.90;;;;;;5103439;28;21238;-78
2021/03/10 05:35:53;;;;;;;84.82;44.08;;;6.10;99.90;;;;;;5106907;28;20678;-76
2021/03/10 05:38:21;;;;;;;91.20;44.35;;;6.10;99.90;;;;;;5104682;28;20201;-77
2021/03/10 05:40:47;;;;;;;88.80;42.92;;;6.10;99.90;;;;;;5105441;28;20555;-76
2021/03/10 05:43:15;;;;;;;95.68;44.22;;;6.10;99.90;;;;;;5107776;28;20205;-77
2021/03/10 05:45:41;;;;;;;86.03;44.15;;;6.10;99.90;;;;;;5105249;28;20214;-76
2021/03/10 05:48:08;;;;;;;85.68;43.75;;;6.10;99.90;;;;;;5105793;28;20573;-76
2021/03/10 05:50:35;;;;;;;83.13;42.95;;;6.10;99.90;;;;;;5105396;28;20190;-74
2021/03/10 05:53:02;;;;;;;97.70;45.22;;;6.10;99.90;;;;;;5104040;28;20201;-76
2021/03/10 05:55:31;;;;;;;88.95;44.65;;;6.10;99.90;;;;;;5105595;28;20657;-77
2021/03/10 05:57:57;;;;;;;87.63;44.60;;;6.10;99.90;;;;;;5104201;28;20254;-76
2021/03/10 06:00:24;;;;;;;93.32;44.55;;;6.10;99.90;;;;;;5105528;28;20228;-74
2021/03/10 06:02:52;;;;;;;84.47;45.20;;;6.10;99.90;;;;;;5105844;27;20209;-76
2021/03/10 06:05:19;;;;;;;85.25;43.05;;;6.00;99.90;;;;;;5105142;28;20209;-74
2021/03/10 06:07:46;;;;;;;86.45;43.50;;;6.10;99.90;;;;;;5103854;28;20308;-75
2021/03/10 06:10:14;;;;;;;85.57;43.95;;;6.00;99.90;;;;;;5105463;28;20204;-75
2021/03/10 06:12:42;;;;;;;85.70;43.47;;;6.10;99.90;;;;;;5100449;28;20209;-77
2021/03/10 06:15:10;;;;;;;83.00;43.25;;;6.10;99.90;;;;;;5104537;28;20567;-77
2021/03/10 06:17:44;;;;;;;85.35;43.35;;;6.10;99.90;;;;;;5106303;28;20670;-76
2021/03/10 06:20:23;;;;;;;84.88;42.25;;;6.10;99.90;;;;;;5101802;28;20220;-74
2021/03/10 06:22:50;;;;;;;78.38;41.75;;;6.10;99.90;;;;;;5104659;28;20201;-76
2021/03/10 06:25:16;;;;;;;78.75;42.33;;;6.10;99.90;;;;;;5104547;28;20205;-75
2021/03/10 06:27:53;;;;;;;84.47;42.42;;;6.10;99.90;;;;;;5101322;28;20201;-74
2021/03/10 06:30:34;;;;;;;78.28;41.72;;;6.10;99.90;;;;;;5099862;28;20291;-76
2021/03/10 06:33:00;;;;;;;82.65;40.97;;;6.10;99.90;;;;;;5101297;28;20213;-79
2021/03/10 06:35:28;;;;;;;86.15;40.78;;;6.10;99.90;;;;;;5103063;28;20209;-77
2021/03/10 06:38:06;;;;;;;79.70;41.47;;;6.10;99.90;;;;;;5100965;28;20215;-74
2021/03/10 06:40:33;;;;;;;82.30;41.70;;;6.10;99.90;;;;;;5102769;28;20235;-77
2021/03/10 06:43:04;;;;;;;77.90;41.45;;;6.10;99.90;;;;;;5103654;28;20196;-76
2021/03/10 06:45:32;;;;;;;85.70;41.45;;;6.10;99.90;;;;;;5104091;28;20670;-76
2021/03/10 06:47:59;;;;;;;78.38;40.92;;;6.10;99.90;;;;;;5102210;28;20542;-77
2021/03/10 06:50:35;;;;;;;78.63;40.40;;;6.10;99.90;;;;;;5103526;28;20711;-74
2021/03/10 06:53:02;;;;;;;74.53;38.90;;;6.20;99.90;;;;;;5104693;28;20208;-78
2021/03/10 06:55:42;;;;;;;74.78;40.88;;;6.10;99.90;;;;;;5104276;28;20216;-75
2021/03/10 06:58:10;;;;;;;77.32;40.97;;;6.20;99.90;;;;;;5104151;28;20212;-75
2021/03/10 07:00:37;;;;;;;75.68;40.38;;;6.20;99.90;;;;;;5103948;28;20303;-76
2021/03/10 07:03:05;;;;;;;85.13;41.17;;;6.20;99.90;;;;;;5099484;28;20217;-75
2021/03/10 07:05:32;;;;;;;86.13;41.17;;;6.20;99.90;;;;;;5105391;28;20245;-74
2021/03/10 07:07:59;;;;;;;79.97;39.58;;;6.20;99.90;;;;;;5105250;28;20229;-75
2021/03/10 07:10:28;;;;;;;75.03;39.70;;;6.20;99.90;;;;;;5102363;28;20205;-75
2021/03/10 07:12:57;;;;;;;76.90;38.75;;;6.20;99.90;;;;;;5104743;28;20308;-74
2021/03/10 07:15:25;;;;;;;80.50;39.42;;;6.30;99.90;;;;;;5100950;28;20201;-73
2021/03/10 07:17:51;;;;;;;77.60;40.05;;;6.30;99.90;;;;;;5100867;28;20649;-74
2021/03/10 07:20:19;;;;;;;77.88;40.17;;;6.30;99.90;;;;;;5095135;28;20217;-73
2021/03/10 07:22:52;;;;;;;82.90;41.05;;;6.30;99.90;;;;;;5097289;28;20208;-75
2021/03/10 07:25:29;;;;;;;77.32;39.65;;;6.30;99.90;;;;;;5101991;28;20197;-73
2021/03/10 07:28:00;;;;;;;81.88;40.20;;;6.30;99.90;;;;;;5101599;28;20346;-74
2021/03/10 07:30:38;;;;;;;88.22;40.45;;;6.30;99.90;;;;;;5102553;28;20197;-72
2021/03/10 07:33:09;;;;;;;76.68;39.40;;;6.30;99.90;;;;;;5101060;27;20219;-72
2021/03/10 07:35:50;;;;;;;71.25;37.20;;;6.30;99.90;;;;;;5103057;28;20262;-74
2021/03/10 07:38:18;;;;;;;75.47;38.13;;;6.30;99.90;;;;;;5099931;27;20201;-74
2021/03/10 07:40:52;;;;;;;72.38;37.25;;;6.30;99.90;;;;;;5104979;28;20235;-74
2021/03/10 07:43:19;;;;;;;72.20;39.47;;;6.30;99.90;;;;;;5108308;28;20196;-76
2021/03/10 07:45:46;;;;;;;71.88;37.97;;;6.40;99.90;;;;;;5105619;28;20205;-74
2021/03/10 07:48:13;;;;;;;76.20;39.08;;;6.30;99.90;;;;;;5106627;27;20210;-75
2021/03/10 07:50:42;;;;;;;69.70;37.40;;;6.40;99.90;;;;;;5107958;27;20249;-73
2021/03/10 07:53:09;;;;;;;67.15;36.40;;;6.30;99.90;;;;;;5105081;28;20201;-74
2021/03/10 07:55:42;;;;;;;70.18;36.47;;;6.30;99.90;;;;;;5107507;28;20197;-75
2021/03/10 07:58:09;;;;;;;70.05;37.15;;;6.40;99.90;;;;;;5107489;28;20208;-75
2021/03/10 08:00:36;;;;;;;71.25;36.88;;;6.40;99.90;;;;;;5107096;27;20221;-73
2021/03/10 08:03:04;;;;;;;67.47;36.92;;;6.50;99.90;;;;;;5103934;28;20246;-73
2021/03/10 08:05:32;;;;;;;66.70;36.42;;;6.50;99.90;;;;;;5107102;28;20220;-74
2021/03/10 08:08:10;;;;;;;72.50;36.53;;;6.50;99.90;;;;;;5103874;28;22150;-73
2021/03/10 08:10:38;;;;;;;64.72;35.83;;;6.50;99.90;;;;;;5107027;28;20193;-76
2021/03/10 08:13:15;;;;;;;74.28;36.35;;;6.50;99.90;;;;;;5107902;27;20208;-76
2021/03/10 08:15:41;;;;;;;70.53;36.47;;;6.50;99.90;;;;;;5106318;28;20299;-77
2021/03/10 08:18:09;;;;;;;68.15;36.78;;;6.50;99.90;;;;;;5106848;28;20255;-79
2021/03/10 08:20:38;;;;;;;71.72;36.30;;;6.60;99.90;;;;;;5105191;28;20225;-74
2021/03/10 08:23:06;;;;;;;71.40;35.97;;;6.60;99.90;;;;;;5105316;27;20209;-77
2021/03/10 08:25:34;;;;;;;65.22;35.88;;;6.60;99.90;;;;;;5105940;27;20588;-76
2021/03/10 08:28:10;;;;;;;66.10;36.08;;;6.60;99.90;;;;;;5107543;28;20189;-73
2021/03/10 08:30:37;;;;;;;73.60;37.28;;;6.60;99.90;;;;;;5102883;28;20197;-73
2021/03/10 08:33:04;;;;;;;66.47;34.90;;;6.60;99.90;;;;;;5105997;27;20208;-75
2021/03/10 08:35:32;;;;;;;77.72;38.83;;;6.60;99.90;;;;;;5102548;28;20236;-76
2021/03/10 08:38:01;;;;;;;65.97;36.45;;;6.70;99.90;;;;;;5107014;28;20197;-75
2021/03/10 08:40:29;;;;;;;64.57;35.20;;;6.70;99.90;;;;;;5101961;27;20975;-76
2021/03/10 08:42:56;;;;;;;71.10;37.45;;;6.70;99.90;;;;;;5103554;28;20207;-75
2021/03/10 08:45:25;;;;;;;64.72;36.50;;;6.70;99.90;;;;;;5101112;28;20334;-75
2021/03/10 08:47:59;;;;;;;66.30;35.75;;;6.70;99.90;;;;;;5106398;27;20608;-75
2021/03/10 08:50:30;;;;;;;64.82;35.35;;;6.80;99.90;;;;;;5105098;28;20763;-73
2021/03/10 08:53:02;;;;;;;70.93;35.85;;;6.80;99.90;;;;;;5108190;27;20200;-74
2021/03/10 08:55:29;;;;;;;67.10;36.47;;;6.80;99.90;;;;;;5103016;28;20204;-74
2021/03/10 08:57:59;;;;;;;66.03;36.25;;;6.80;99.90;;;;;;5106886;28;20239;-74
2021/03/10 09:00:27;;;;;;;62.58;35.03;;;6.80;99.90;;;;;;5102257;27;20208;-73
2021/03/10 09:02:55;;;;;;;62.25;34.67;;;6.80;99.90;;;;;;5105106;28;20216;-74
2021/03/10 09:05:28;;;;;;;78.80;39.30;;;6.90;99.90;;;;;;5102412;28;20258;-73
2021/03/10 09:07:58;;;;;;;68.55;36.78;;;6.90;99.90;;;;;;5104469;28;20576;-74
2021/03/10 09:10:27;;;;;;;64.07;35.72;;;6.90;99.90;;;;;;5105399;28;20189;-73
2021/03/10 09:13:03;;;;;;;64.72;34.42;;;6.90;99.90;;;;;;5107358;28;20201;-74
2021/03/10 09:15:31;;;;;;;62.30;35.08;;;7.00;99.90;;;;;;5102090;28;20201;-73
2021/03/10 09:18:10;;;;;;;68.20;35.85;;;7.00;99.90;;;;;;5104888;28;20692;-74
2021/03/10 09:20:44;;;;;;;60.33;33.83;;;7.00;99.90;;;;;;5102870;28;20217;-78
2021/03/10 09:23:12;;;;;;;63.13;34.67;;;7.10;99.90;;;;;;5106369;28;20198;-76
2021/03/10 09:25:47;;;;;;;66.25;35.90;;;7.10;99.90;;;;;;5103837;28;20337;-74
2021/03/10 09:28:22;;;;;;;60.65;34.35;;;7.20;99.90;;;;;;5108615;28;20288;-75
2021/03/10 09:30:59;;;;;;;58.90;32.30;;;7.20;99.90;;;;;;5102478;28;20201;-75
2021/03/10 09:33:30;;;;;;;63.55;33.45;;;7.30;99.90;;;;;;5099739;28;20205;-76
2021/03/10 09:36:02;;;;;;;68.05;35.72;;;7.30;99.90;;;;;;5105925;28;20208;-74
2021/03/10 09:38:34;;;;;;;68.38;35.25;;;7.40;99.90;;;;;;5104906;28;20701;-76
2021/03/10 09:41:09;;;;;;;60.05;33.28;;;7.40;99.90;;;;;;5103446;28;20274;-75
2021/03/10 09:43:38;;;;;;;55.85;32.00;;;7.50;99.90;;;;;;5104673;27;20216;-78
2021/03/10 09:46:09;;;;;;;55.42;32.35;;;7.50;99.90;;;;;;5103656;28;20209;-74
2021/03/10 09:48:40;;;;;;;62.28;31.05;;;7.60;99.90;;;;;;5106502;28;20250;-74
2021/03/10 09:51:12;;;;;;;63.97;32.13;;;7.60;99.90;;;;;;5104667;28;20197;-75
2021/03/10 09:53:43;;;;;;;57.85;31.90;;;7.70;99.90;;;;;;5103245;28;20200;-73
2021/03/10 09:56:15;;;;;;;57.90;30.50;;;7.70;99.90;;;;;;5102202;28;20571;-74
2021/03/10 09:58:48;;;;;;;53.78;30.55;;;7.80;99.90;;;;;;5104430;28;20208;-75
2021/03/10 10:01:17;;;;;;;54.55;30.08;;;7.80;99.90;;;;;;5105529;28;20633;-74
2021/03/10 10:03:43;;;;;;;56.58;29.05;;;7.90;99.90;;;;;;5103930;28;20198;-75
2021/03/10 10:06:12;;;;;;;54.00;29.80;;;7.90;99.90;;;;;;5103326;28;20962;-76
2021/03/10 10:08:44;;;;;;;50.00;29.20;;;7.90;99.90;;;;;;5104329;28;20259;-77
2021/03/10 10:11:12;;;;;;;50.80;28.67;;;8.00;99.90;;;;;;5101175;28;20226;-78
2021/03/10 10:13:41;;;;;;;50.45;29.38;;;8.00;99.90;;;;;;5100695;28;20685;-76
2021/03/10 10:16:08;;;;;;;54.70;28.08;;;8.00;99.90;;;;;;5118766;27;20222;-76
2021/03/10 10:18:35;;;;;;;49.10;29.48;;;8.10;99.90;;;;;;5106001;28;20215;-78
2021/03/10 10:21:03;;;;;;;49.70;28.50;;;8.10;99.90;;;;;;5103242;28;20213;-81
2021/03/10 10:23:32;;;;;;;52.00;27.85;;;8.10;99.90;;;;;;5109638;28;20193;-81
2021/03/10 10:26:05;;;;;;;52.83;29.25;;;8.20;99.90;;;;;;5104524;28;20205;-78
2021/03/10 10:28:35;;;;;;;53.58;29.17;;;8.20;99.90;;;;;;5105651;28;20227;-78
2021/03/10 10:31:04;;;;;;;51.00;27.92;;;8.30;99.90;;;;;;5104811;28;20598;-78
2021/03/10 10:33:34;;;;;;;45.85;27.50;;;8.30;99.90;;;;;;5102898;28;20716;-77
2021/03/10 10:36:01;;;;;;;46.47;27.13;;;8.30;99.90;;;;;;5102328;28;20213;-79
2021/03/10 10:38:27;;;;;;;52.13;27.33;;;8.30;99.90;;;;;;5104021;28;20220;-78
2021/03/10 10:40:57;;;;;;;48.50;27.63;;;8.30;99.90;;;;;;5102124;28;20221;-77
2021/03/10 10:43:24;;;;;;;45.13;26.98;;;8.40;99.90;;;;;;5103715;28;20292;-77
2021/03/10 10:45:55;;;;;;;46.03;26.60;;;8.40;99.90;;;;;;5104595;28;20205;-76
2021/03/10 10:48:25;;;;;;;43.22;26.30;;;8.50;99.90;;;;;;5099607;28;20291;-77
2021/03/10 10:51:08;;;;;;;43.72;25.70;;;8.50;99.90;;;;;;5105839;28;20198;-78
2021/03/10 10:53:46;;;;;;;46.60;25.60;;;8.50;99.90;;;;;;5107159;28;20568;-75
2021/03/10 10:56:12;;;;;;;41.22;24.85;;;8.60;99.90;;;;;;5101951;28;20212;-78
2021/03/10 10:58:39;;;;;;;47.78;24.95;;;8.60;99.90;;;;;;5102502;28;20713;-79
2021/03/10 11:01:07;;;;;;;42.83;24.98;;;8.60;99.90;;;;;;5100950;28;20975;-81
2021/03/10 11:03:36;;;;;;;45.42;24.35;;;8.60;99.90;;;;;;5101025;28;20287;-78
2021/03/10 11:06:06;;;;;;;42.00;24.73;;;8.70;99.90;;;;;;5102621;28;20201;-81
2021/03/10 11:08:38;;;;;;;47.67;24.70;;;8.70;99.90;;;;;;5107132;28;20670;-79
2021/03/10 11:11:05;;;;;;;43.60;24.92;;;8.70;99.90;;;;;;5103474;28;20204;-77
2021/03/10 11:13:31;;;;;;;44.72;24.80;;;8.70;99.90;;;;;;5106115;28;20600;-75
2021/03/10 11:16:05;;;;;;;39.85;23.48;;;8.70;99.90;;;;;;5106579;28;20220;-77
2021/03/10 11:18:53;;;;;;;40.35;23.83;;;8.70;99.90;;;;;;5108675;27;20216;-76
2021/03/10 11:21:20;;;;;;;40.42;23.70;;;8.80;99.90;;;;;;5105401;28;20217;-78
2021/03/10 11:23:47;;;;;;;40.67;24.85;;;8.80;99.90;;;;;;5110506;28;20307;-77
2021/03/10 11:26:14;;;;;;;41.17;23.27;;;8.80;99.90;;;;;;5107399;28;20185;-77
2021/03/10 11:28:41;;;;;;;43.40;23.88;;;8.90;99.90;;;;;;5106603;27;20288;-76
2021/03/10 11:31:09;;;;;;;45.30;25.23;;;8.90;99.90;;;;;;5105891;27;20208;-79
2021/03/10 11:33:38;;;;;;;42.78;23.92;;;8.90;99.90;;;;;;5108365;28;20205;-79
2021/03/10 11:36:10;;;;;;;45.88;24.33;;;8.90;99.60;;;;;;5109268;28;20587;-78
2021/03/10 11:38:44;;;;;;;39.78;23.52;;;9.00;99.50;;;;;;5108223;27;20684;-78
2021/03/10 11:41:10;;;;;;;41.97;23.55;;;9.00;98.90;;;;;;5109009;28;20217;-77
2021/03/10 11:43:37;;;;;;;39.70;23.73;;;9.10;98.90;;;;;;5107915;28;20205;-81
2021/03/10 11:46:03;;;;;;;42.05;24.15;;;9.10;98.20;;;;;;5107112;28;20193;-77
2021/03/10 11:48:29;;;;;;;41.15;23.73;;;9.20;98.50;;;;;;5107846;28;20205;-79
2021/03/10 11:50:56;;;;;;;42.58;24.50;;;9.20;97.90;;;;;;5108890;28;20230;-78
2021/03/10 11:53:23;;;;;;;41.30;23.70;;;9.20;97.50;;;;;;5106851;28;20571;-78
2021/03/10 11:55:50;;;;;;;42.10;24.58;;;9.20;97.40;;;;;;5104911;27;20208;-79
2021/03/10 11:58:17;;;;;;;46.25;25.10;;;9.30;97.40;;;;;;5104646;28;20596;-80
2021/03/10 12:00:43;;;;;;;44.05;24.73;;;9.30;97.30;;;;;;5105635;28;20254;-79
2021/03/10 12:03:16;;;;;;;39.92;24.38;;;9.30;96.80;;;;;;5107838;27;20205;-78
2021/03/10 12:06:06;;;;;;;40.30;23.77;;;9.30;96.80;;;;;;5107500;27;20288;-80
2021/03/10 12:08:33;;;;;;;41.65;24.45;;;9.30;96.50;;;;;;5103629;27;20578;-78
2021/03/10 12:11:00;;;;;;;40.15;24.02;;;9.40;96.30;;;;;;5107925;28;20202;-79
2021/03/10 12:13:27;;;;;;;40.65;22.65;;;9.40;96.50;;;;;;5109323;28;20201;-76
2021/03/10 12:15:55;;;;;;;39.38;23.02;;;9.40;96.40;;;;;;5103630;28;20205;-77
2021/03/10 12:18:22;;;;;;;36.95;21.92;;;9.50;96.10;;;;;;5108286;28;20216;-79
2021/03/10 12:20:49;;;;;;;36.15;22.30;;;9.40;96.10;;;;;;5106401;27;20216;-80
2021/03/10 12:23:15;;;;;;;37.22;21.42;;;9.50;95.50;;;;;;5108545;27;20216;-80
2021/03/10 12:25:42;;;;;;;38.95;21.20;;;9.40;95.60;;;;;;5109827;28;20649;-78
2021/03/10 12:28:09;;;;;;;39.20;21.70;;;9.50;95.40;;;;;;5109933;28;20224;-77
2021/03/10 12:30:35;;;;;;;37.05;20.60;;;9.40;95.40;;;;;;5108790;27;20272;-78
2021/03/10 12:33:02;;;;;;;36.28;21.65;;;9.40;95.30;;;;;;5104105;27;20201;-77
2021/03/10 12:35:29;;;;;;;35.28;20.83;;;9.30;95.30;;;;;;5106773;28;20205;-78
2021/03/10 12:37:55;;;;;;;36.65;21.13;;;9.30;95.40;;;;;;5107789;28;20254;-78
2021/03/10 12:40:23;;;;;;;39.20;22.05;;;9.30;95.50;;;;;;5109722;27;20747;-76
2021/03/10 12:42:51;;;;;;;34.38;21.23;;;9.20;95.60;;;;;;5106309;28;20205;-78
2021/03/10 12:45:18;;;;;;;35.95;21.60;;;9.30;95.60;;;;;;5106908;28;20329;-76